createdAt,value
2023-03-15T00:01:30.320Z,1.30
2023-03-15T00:03:57.649Z,3.08
2023-03-15T00:06:25.314Z,1.25
2023-03-15T00:08:52.522Z,1.02
2023-03-15T00:11:20.105Z,1.33
2023-03-15T00:13:47.741Z,0.90
2023-03-15T00:16:17.642Z,1.35
2023-03-15T00:18:47.139Z,1.45
2023-03-15T00:21:14.684Z,1.30
2023-03-15T00:23:41.966Z,1.23
2023-03-15T00:26:09.263Z,1.60
2023-03-15T00:28:36.632Z,1.48
2023-03-15T00:31:09.432Z,2.97
2023-03-15T00:33:36.838Z,1.20
2023-03-15T00:36:06.089Z,1.83
2023-03-15T00:38:37.316Z,1.20
2023-03-15T00:41:05.970Z,1.05
2023-03-15T00:43:33.668Z,1.00
2023-03-15T00:46:01.017Z,1.42
2023-03-15T00:48:29.262Z,1.50
2023-03-15T00:51:05.458Z,1.00
2023-03-15T00:53:33.164Z,1.02
2023-03-15T00:56:04.585Z,1.73
2023-03-15T00:58:31.849Z,1.10
2023-03-15T01:00:59.155Z,1.48
2023-03-15T01:03:26.485Z,1.10
2023-03-15T01:05:53.799Z,1.25
2023-03-15T01:08:21.037Z,0.93
2023-03-15T01:10:48.367Z,0.90
2023-03-15T01:13:15.661Z,2.58
2023-03-15T01:15:47.058Z,1.13
2023-03-15T01:18:14.628Z,0.90
2023-03-15T01:20:44.876Z,1.10
2023-03-15T01:23:12.578Z,1.10
2023-03-15T01:25:40.587Z,0.80
2023-03-15T01:28:07.945Z,1.15
2023-03-15T01:30:36.026Z,1.00
2023-03-15T01:33:03.482Z,1.15
2023-03-15T01:35:30.987Z,1.10
2023-03-15T01:37:59.219Z,1.17
2023-03-15T01:40:27.179Z,1.67
2023-03-15T01:43:06.920Z,1.13
2023-03-15T01:45:53.118Z,1.00
2023-03-15T01:48:23.801Z,0.90
2023-03-15T01:50:51.359Z,0.90
2023-03-15T01:53:18.757Z,1.20
2023-03-15T01:55:46.073Z,1.23
2023-03-15T02:00:44.454Z,1.05
2023-03-15T02:03:22.008Z,1.38
2023-03-15T02:05:55.117Z,1.80
2023-03-15T02:08:56.761Z,0.80
2023-03-15T02:11:26.438Z,1.75
2023-03-15T02:16:23.671Z,1.40
2023-03-15T02:18:59.610Z,1.05
2023-03-15T02:21:29.965Z,1.45
2023-03-15T02:24:19.077Z,0.95
2023-03-15T02:26:49.308Z,1.52
2023-03-15T02:29:16.698Z,1.50
2023-03-15T02:31:44.674Z,1.10
2023-03-15T02:34:12.304Z,1.15
2023-03-15T02:36:41.633Z,1.10
2023-03-15T02:39:19.365Z,0.90
2023-03-15T02:41:52.631Z,1.13
2023-03-15T02:44:37.986Z,1.45
2023-03-15T02:47:19.013Z,1.30
2023-03-15T02:49:52.011Z,1.20
2023-03-15T02:52:19.338Z,1.42
2023-03-15T02:54:46.611Z,1.60
2023-03-15T02:57:14.450Z,1.40
2023-03-15T02:59:44.856Z,1.02
2023-03-15T03:02:13.492Z,1.65
2023-03-15T03:04:42.695Z,1.13
2023-03-15T03:07:10.295Z,1.48
2023-03-15T03:09:47.484Z,1.40
2023-03-15T03:12:15.499Z,1.40
2023-03-15T03:14:43.367Z,1.90
2023-03-15T03:17:14.974Z,1.25
2023-03-15T03:19:43.022Z,1.58
2023-03-15T03:22:13.406Z,1.53
2023-03-15T03:24:45.854Z,2.00
2023-03-15T03:27:17.318Z,1.98
2023-03-15T03:29:46.767Z,1.88
2023-03-15T03:32:14.825Z,1.80
2023-03-15T03:34:48.279Z,2.60
2023-03-15T03:37:20.156Z,1.77
2023-03-15T03:39:56.193Z,1.73
2023-03-15T03:42:23.656Z,3.80
2023-03-15T03:44:51.161Z,1.65
2023-03-15T03:47:22.165Z,1.75
2023-03-15T03:49:49.541Z,2.13
2023-03-15T03:52:16.977Z,2.30
2023-03-15T03:54:45.278Z,2.92
2023-03-15T03:57:12.725Z,1.83
2023-03-15T03:59:40.799Z,1.38
2023-03-15T04:02:09.581Z,2.50
2023-03-15T04:04:41.319Z,3.05
2023-03-15T04:07:14.538Z,1.27
2023-03-15T04:09:44.216Z,1.85
2023-03-15T04:12:11.590Z,1.65
2023-03-15T04:14:41.851Z,2.10
2023-03-15T04:17:11.361Z,2.03
2023-03-15T04:19:38.875Z,2.33
2023-03-15T04:24:58.088Z,3.58
2023-03-15T04:27:45.873Z,3.08
2023-03-15T04:30:33.180Z,2.00
2023-03-15T04:33:14.048Z,2.95
2023-03-15T04:36:00.010Z,1.75
2023-03-15T04:38:35.477Z,4.53
2023-03-15T04:41:27.050Z,1.75
2023-03-15T04:44:26.657Z,1.63
2023-03-15T04:47:15.832Z,2.00
2023-03-15T04:50:08.948Z,1.80
2023-03-15T04:53:08.613Z,1.85
2023-03-15T04:56:08.562Z,2.60
2023-03-15T04:59:14.072Z,2.60
2023-03-15T05:02:06.110Z,1.80
2023-03-15T05:07:30.912Z,2.00
2023-03-15T05:10:29.795Z,1.75
2023-03-15T05:13:08.984Z,1.75
2023-03-15T05:15:56.817Z,2.67
2023-03-15T05:18:45.247Z,1.95
2023-03-15T05:21:32.676Z,1.60
2023-03-15T05:24:18.428Z,2.50
2023-03-15T05:27:14.137Z,1.20
2023-03-15T05:29:59.247Z,1.58
2023-03-15T05:33:05.045Z,1.60
2023-03-15T05:35:32.422Z,1.58
2023-03-15T05:38:19.548Z,2.58
2023-03-15T05:41:01.833Z,1.55
2023-03-15T05:43:44.967Z,1.08
2023-03-15T05:46:24.503Z,1.35
2023-03-15T05:49:00.214Z,1.60
2023-03-15T05:51:35.617Z,1.77
2023-03-15T05:54:15.974Z,1.75
2023-03-15T05:56:58.104Z,0.93
2023-03-15T05:59:31.669Z,2.25
2023-03-15T06:02:19.239Z,1.27
2023-03-15T06:04:59.862Z,0.88
2023-03-15T06:07:28.315Z,1.00
2023-03-15T06:09:55.909Z,1.58
2023-03-15T06:12:23.426Z,0.85
2023-03-15T06:14:51.440Z,0.90
2023-03-15T06:17:18.909Z,0.80
2023-03-15T06:19:46.433Z,1.40
2023-03-15T06:22:13.711Z,1.27
2023-03-15T06:24:48.299Z,1.00
2023-03-15T06:27:15.959Z,1.08
2023-03-15T06:29:43.306Z,1.08
2023-03-15T06:32:10.703Z,0.90
2023-03-15T06:34:40.670Z,1.45
2023-03-15T06:37:08.159Z,1.52
2023-03-15T06:39:35.595Z,1.77
2023-03-15T06:42:04.371Z,2.85
2023-03-15T06:44:33.585Z,4.00
2023-03-15T06:47:05.262Z,1.67
2023-03-15T06:49:32.749Z,2.22
2023-03-15T06:52:02.439Z,1.48
2023-03-15T06:54:29.809Z,1.80
2023-03-15T06:56:57.204Z,2.20
2023-03-15T06:59:24.931Z,2.50
2023-03-15T07:01:52.347Z,2.60
2023-03-15T07:04:19.666Z,2.03
2023-03-15T07:06:46.959Z,2.55
2023-03-15T07:09:16.464Z,2.53
2023-03-15T07:11:43.807Z,2.30
2023-03-15T07:14:11.107Z,2.63
2023-03-15T07:16:38.454Z,2.60
2023-03-15T07:19:05.887Z,2.78
2023-03-15T07:21:33.223Z,2.65
2023-03-15T07:24:00.531Z,2.95
2023-03-15T07:26:27.916Z,3.75
2023-03-15T07:28:55.239Z,3.38
2023-03-15T07:31:22.936Z,3.13
2023-03-15T07:33:50.328Z,4.10
2023-03-15T07:36:17.653Z,3.53
2023-03-15T07:38:44.956Z,3.33
2023-03-15T07:41:12.310Z,1.92
2023-03-15T07:43:46.314Z,4.15
2023-03-15T07:46:18.527Z,2.90
2023-03-15T07:48:46.602Z,3.50
2023-03-15T07:51:13.857Z,3.03
2023-03-15T07:53:41.211Z,2.20
2023-03-15T07:56:08.535Z,2.08
2023-03-15T07:58:35.868Z,3.13
2023-03-15T08:01:03.510Z,3.17
2023-03-15T08:03:31.544Z,2.80
2023-03-15T08:05:58.878Z,1.88
2023-03-15T08:08:27.914Z,2.20
2023-03-15T08:10:56.064Z,1.73
2023-03-15T08:13:24.346Z,1.50
2023-03-15T08:15:51.706Z,2.90
2023-03-15T08:18:19.152Z,2.72
2023-03-15T08:20:46.477Z,1.92
2023-03-15T08:23:16.434Z,1.83
2023-03-15T08:25:45.123Z,1.95
2023-03-15T08:28:14.632Z,1.55
2023-03-15T08:30:42.144Z,1.70
2023-03-15T08:33:09.795Z,1.45
2023-03-15T08:35:37.420Z,1.80
2023-03-15T08:38:05.028Z,1.77
2023-03-15T08:40:32.526Z,1.65
2023-03-15T08:43:00.346Z,1.63
2023-03-15T08:45:28.062Z,1.17
2023-03-15T08:47:56.955Z,1.92
2023-03-15T08:50:24.430Z,1.55
2023-03-15T08:52:51.871Z,1.50
2023-03-15T08:55:19.310Z,1.60
2023-03-15T08:57:46.615Z,2.13
2023-03-15T09:00:22.642Z,2.00
2023-03-15T09:02:52.015Z,1.48
2023-03-15T09:07:46.909Z,1.70
2023-03-15T09:10:15.531Z,1.38
2023-03-15T09:12:43.637Z,1.73
2023-03-15T09:15:12.007Z,1.80
2023-03-15T09:17:39.776Z,1.73
2023-03-15T09:20:11.333Z,1.52
2023-03-15T09:22:39.884Z,1.38
2023-03-15T09:25:08.271Z,1.37
2023-03-15T09:27:35.610Z,2.30
2023-03-15T09:30:04.097Z,2.15
2023-03-15T09:32:36.320Z,2.10
2023-03-15T09:35:08.047Z,1.75
2023-03-15T09:37:35.588Z,1.33
2023-03-15T09:40:04.255Z,1.10
2023-03-15T09:42:37.700Z,1.65
2023-03-15T09:45:15.698Z,1.35
2023-03-15T09:47:51.739Z,1.10
2023-03-15T09:50:26.836Z,1.20
2023-03-15T09:53:07.191Z,2.08
2023-03-15T09:55:34.518Z,1.70
2023-03-15T09:58:03.466Z,1.38
2023-03-15T10:00:39.858Z,1.90
2023-03-15T10:03:09.887Z,2.05
2023-03-15T10:05:42.464Z,1.70
2023-03-15T10:08:11.630Z,1.88
2023-03-15T10:13:24.953Z,1.30
2023-03-15T10:16:24.651Z,1.45
2023-03-15T10:19:21.534Z,2.20
2023-03-15T10:22:04.447Z,1.52
2023-03-15T10:24:31.732Z,1.50
2023-03-15T10:27:00.781Z,1.80
2023-03-15T10:29:28.716Z,1.10
2023-03-15T10:31:56.162Z,2.00
2023-03-15T10:34:26.125Z,1.25
2023-03-15T10:36:55.208Z,1.50
2023-03-15T10:39:23.378Z,2.30
2023-03-15T10:41:51.483Z,1.50
2023-03-15T10:44:24.123Z,1.75
2023-03-15T10:47:23.553Z,1.98
2023-03-15T10:49:56.270Z,1.38
2023-03-15T10:52:26.624Z,1.55
2023-03-15T10:54:58.712Z,1.30
2023-03-15T10:57:34.507Z,1.40
2023-03-15T11:00:06.921Z,2.25
2023-03-15T11:02:34.283Z,1.67
2023-03-15T11:05:03.658Z,1.60
2023-03-15T11:07:35.139Z,3.03
2023-03-15T11:10:04.216Z,1.45
2023-03-15T11:12:33.367Z,1.30
2023-03-15T11:17:29.965Z,1.17
2023-03-15T11:20:13.138Z,1.10
2023-03-15T11:22:41.249Z,1.23
2023-03-15T11:25:15.308Z,1.00
2023-03-15T11:27:51.918Z,1.02
2023-03-15T11:30:19.763Z,1.23
2023-03-15T11:32:47.662Z,1.30
2023-03-15T11:35:16.400Z,1.20
2023-03-15T11:37:47.911Z,1.10
2023-03-15T11:40:22.340Z,1.38
2023-03-15T11:42:55.666Z,1.23
2023-03-15T11:45:37.592Z,1.13
2023-03-15T11:48:36.451Z,0.82
2023-03-15T11:51:03.904Z,0.88
2023-03-15T11:53:36.594Z,1.10
2023-03-15T11:56:20.589Z,1.13
2023-03-15T11:59:02.071Z,1.05
2023-03-15T12:01:29.404Z,0.98
2023-03-15T12:04:15.895Z,1.00
2023-03-15T12:06:43.348Z,0.80
2023-03-15T12:09:29.612Z,0.95
2023-03-15T12:12:04.707Z,0.90
2023-03-15T12:14:35.956Z,0.93
2023-03-15T12:17:22.137Z,1.23
2023-03-15T12:19:53.102Z,1.00
2023-03-15T12:22:20.784Z,1.70
2023-03-15T12:24:48.823Z,0.98
2023-03-15T12:27:17.698Z,1.10
2023-03-15T12:29:45.937Z,1.13
2023-03-15T12:32:14.341Z,0.80
2023-03-15T12:34:45.044Z,1.30
2023-03-15T12:37:18.049Z,1.10
2023-03-15T12:39:45.385Z,1.08
2023-03-15T12:42:32.976Z,1.17
2023-03-15T12:45:18.780Z,1.80
2023-03-15T12:47:52.320Z,0.98
2023-03-15T12:50:39.842Z,1.63
2023-03-15T12:53:26.061Z,2.17
2023-03-15T12:55:59.548Z,3.15
2023-03-15T12:58:37.495Z,1.48
2023-03-15T13:01:06.737Z,1.70
2023-03-15T13:03:35.983Z,1.52
2023-03-15T13:06:10.414Z,0.88
2023-03-15T13:08:56.169Z,1.17
2023-03-15T13:11:26.481Z,2.30
2023-03-15T13:14:20.186Z,2.53
2023-03-15T13:17:02.927Z,1.23
2023-03-15T13:19:38.225Z,1.45
2023-03-15T13:22:24.350Z,1.63
2023-03-15T13:25:04.557Z,2.50
2023-03-15T13:27:38.682Z,1.85
2023-03-15T13:30:26.305Z,1.63
2023-03-15T13:33:06.358Z,1.42
2023-03-15T13:35:34.521Z,1.30
2023-03-15T13:38:22.265Z,1.42
2023-03-15T13:40:49.719Z,1.20
2023-03-15T13:43:17.089Z,1.27
2023-03-15T13:45:44.844Z,1.35
2023-03-15T13:48:13.409Z,1.10
2023-03-15T13:50:41.129Z,1.35
2023-03-15T13:53:08.652Z,1.10
2023-03-15T13:55:37.212Z,1.40
2023-03-15T13:58:08.936Z,1.08
2023-03-15T14:00:37.176Z,1.38
2023-03-15T14:03:09.254Z,1.30
2023-03-15T14:05:44.554Z,1.33
2023-03-15T14:08:21.997Z,1.42
2023-03-15T14:11:02.050Z,1.20
2023-03-15T14:13:32.108Z,2.00
2023-03-15T14:16:06.952Z,1.88
2023-03-15T14:18:38.936Z,3.03
2023-03-15T14:21:09.489Z,1.80
2023-03-15T14:23:40.685Z,1.70
2023-03-15T14:26:22.268Z,1.92
2023-03-15T14:28:56.130Z,2.10
2023-03-15T14:31:24.580Z,1.92
2023-03-15T14:33:54.335Z,1.60
2023-03-15T14:36:23.415Z,2.10
2023-03-15T14:38:54.785Z,2.90
2023-03-15T14:41:28.184Z,1.60
2023-03-15T14:43:55.524Z,2.30
2023-03-15T14:46:22.834Z,1.88
2023-03-15T14:48:51.110Z,1.95
2023-03-15T14:51:19.840Z,2.03
2023-03-15T14:53:49.173Z,1.80
2023-03-15T14:56:18.134Z,1.80
2023-03-15T14:58:46.966Z,1.80
2023-03-15T15:01:15.568Z,1.92
2023-03-15T15:03:44.569Z,1.90
2023-03-15T15:06:13.915Z,1.90
2023-03-15T15:08:43.433Z,2.00
2023-03-15T15:11:13.144Z,2.05
2023-03-15T15:13:41.152Z,1.42
2023-03-15T15:16:08.801Z,1.95
2023-03-15T15:18:37.072Z,1.70
2023-03-15T15:21:13.299Z,1.58
2023-03-15T15:23:57.008Z,1.23
2023-03-15T15:26:26.324Z,1.63
2023-03-15T15:28:54.019Z,1.20
2023-03-15T15:31:25.705Z,1.50
2023-03-15T15:33:54.022Z,1.42
2023-03-15T15:36:21.498Z,1.13
2023-03-15T15:38:49.703Z,1.40
2023-03-15T15:41:20.281Z,0.77
2023-03-15T15:43:47.542Z,1.75
2023-03-15T15:46:15.047Z,1.30
2023-03-15T15:48:42.697Z,1.10
2023-03-15T15:51:16.535Z,1.10
2023-03-15T15:53:43.864Z,1.20
2023-03-15T15:56:14.965Z,1.65
2023-03-15T15:58:42.827Z,1.02
2023-03-15T16:01:14.164Z,1.30
2023-03-15T16:03:42.110Z,0.90
2023-03-15T16:06:19.986Z,1.75
2023-03-15T16:08:48.258Z,1.42
2023-03-15T16:11:16.955Z,1.05
2023-03-15T16:13:45.497Z,1.05
2023-03-15T16:16:16.867Z,1.10
2023-03-15T16:18:44.873Z,1.02
2023-03-15T16:21:16.038Z,1.13
2023-03-15T16:23:44.046Z,1.08
2023-03-15T16:26:14.346Z,1.27
2023-03-15T16:28:41.722Z,1.45
2023-03-15T16:31:09.151Z,1.10
2023-03-15T16:33:36.751Z,2.05
2023-03-15T16:36:04.383Z,1.30
2023-03-15T16:38:32.418Z,1.33
2023-03-15T16:41:01.337Z,1.10
2023-03-15T16:43:28.918Z,1.27
2023-03-15T16:45:56.290Z,1.15
2023-03-15T16:48:23.699Z,1.23
2023-03-15T16:50:51.807Z,1.30
2023-03-15T16:53:19.841Z,1.20
2023-03-15T16:55:47.093Z,1.70
2023-03-15T16:58:16.439Z,1.55
2023-03-15T17:03:12.957Z,2.95
2023-03-15T17:05:41.519Z,1.33
2023-03-15T17:08:12.196Z,1.67
2023-03-15T17:10:41.388Z,1.50
2023-03-15T17:15:36.196Z,1.50
2023-03-15T17:18:04.675Z,13.00
2023-03-15T17:20:32.144Z,3.67
2023-03-15T17:23:04.046Z,5.05
2023-03-15T17:25:33.124Z,2.70
2023-03-15T17:28:00.471Z,11.10
2023-03-15T17:30:30.072Z,10.40
2023-03-15T17:35:28.477Z,14.20
2023-03-15T17:37:56.452Z,3.15
2023-03-15T17:40:28.329Z,5.00
2023-03-15T17:42:57.256Z,9.50
2023-03-15T17:45:26.694Z,4.32
2023-03-15T17:47:54.527Z,3.70
2023-03-15T17:50:23.521Z,5.40
2023-03-15T17:55:20.215Z,8.57
2023-03-15T17:57:54.648Z,2.63
2023-03-15T18:00:23.917Z,4.35
2023-03-15T18:02:56.331Z,10.43
2023-03-15T18:05:26.330Z,4.70
2023-03-15T18:07:59.007Z,5.28
2023-03-15T18:10:28.325Z,9.20
2023-03-15T18:12:56.151Z,5.10
2023-03-15T18:15:24.320Z,5.03
2023-03-15T18:17:52.354Z,3.53
2023-03-15T18:20:24.375Z,4.70
2023-03-15T18:22:52.627Z,5.32
2023-03-15T18:25:27.574Z,5.07
2023-03-15T18:27:55.158Z,7.10
2023-03-15T18:30:24.052Z,6.70
2023-03-15T18:32:52.308Z,6.45
2023-03-15T18:35:24.501Z,5.78
2023-03-15T18:37:54.165Z,5.50
2023-03-15T18:42:48.916Z,4.93
2023-03-15T18:45:19.040Z,12.25
2023-03-15T18:51:21.597Z,13.77
2023-03-15T18:54:01.964Z,8.05
2023-03-15T18:59:53.339Z,8.38
2023-03-15T19:03:17.853Z,18.30
2023-03-15T19:05:59.510Z,8.35
2023-03-15T19:09:19.975Z,10.23
2023-03-15T19:12:42.551Z,15.82
2023-03-15T19:15:25.135Z,20.55
2023-03-15T19:21:01.095Z,7.28
2023-03-15T19:27:04.777Z,15.43
2023-03-15T19:30:13.681Z,17.67
2023-03-15T19:33:15.032Z,19.05
2023-03-15T19:36:14.469Z,6.35
2023-03-15T19:43:57.371Z,10.95
2023-03-15T19:46:08.848Z,8.98
2023-03-15T19:49:05.678Z,8.77
2023-03-15T19:51:38.081Z,21.10
2023-03-15T19:54:25.908Z,10.25
2023-03-15T19:57:15.778Z,9.10
2023-03-15T20:00:56.176Z,24.70
2023-03-15T20:03:39.028Z,8.57
2023-03-15T20:06:46.962Z,9.80
2023-03-15T20:16:29.817Z,9.05
2023-03-15T20:19:35.533Z,7.90
2023-03-15T20:22:18.793Z,10.57
2023-03-15T20:25:01.867Z,7.57
2023-03-15T20:28:00.182Z,9.43
2023-03-15T20:34:03.316Z,8.35
2023-03-15T20:37:30.673Z,7.00
2023-03-15T20:41:02.019Z,7.10
2023-03-15T20:46:58.984Z,7.13
2023-03-15T20:50:04.659Z,6.93
2023-03-15T20:53:02.423Z,7.00
2023-03-15T20:59:07.197Z,7.20
2023-03-15T21:01:46.837Z,7.25
2023-03-15T21:09:11.644Z,6.90
2023-03-15T21:12:18.618Z,7.50
2023-03-15T21:15:09.841Z,6.53
2023-03-15T21:17:44.119Z,6.38
2023-03-15T21:20:45.607Z,7.70
2023-03-15T21:28:26.749Z,7.40
2023-03-15T21:31:53.046Z,8.60
2023-03-15T21:35:09.721Z,7.63
2023-03-15T21:50:51.861Z,8.82
2023-03-15T21:53:54.368Z,8.00
2023-03-15T21:56:54.774Z,7.15
2023-03-15T21:59:31.892Z,8.25
2023-03-15T22:02:59.893Z,7.40
2023-03-15T22:06:15.551Z,8.00
2023-03-15T22:08:49.275Z,6.78
2023-03-15T22:14:19.277Z,7.57
2023-03-15T22:17:38.081Z,6.88
2023-03-15T22:20:33.766Z,7.20
2023-03-15T22:23:43.279Z,7.13
2023-03-15T22:29:50.194Z,7.63
2023-03-15T22:32:47.302Z,6.72
2023-03-15T22:39:05.472Z,7.28
2023-03-15T22:41:54.617Z,7.63
2023-03-15T22:44:47.200Z,6.50
2023-03-15T22:47:28.160Z,6.93
2023-03-15T22:50:16.549Z,6.32
2023-03-15T22:59:02.830Z,6.72
2023-03-15T23:01:59.327Z,6.63
2023-03-15T23:06:56.446Z,6.15
2023-03-15T23:09:50.444Z,7.00
2023-03-15T23:12:43.586Z,6.70
2023-03-15T23:15:19.155Z,6.82
2023-03-15T23:18:10.675Z,6.03
2023-03-15T23:20:56.958Z,6.43
2023-03-15T23:23:36.993Z,6.05
2023-03-15T23:26:55.826Z,6.50
2023-03-15T23:33:23.914Z,6.45
2023-03-15T23:36:52.188Z,6.35
2023-03-15T23:39:30.960Z,7.35
2023-03-15T23:42:37.634Z,6.53
2023-03-15T23:49:19.435Z,7.32
2023-03-15T23:57:34.295Z,6.55
